Time;durP1;ratioP1;P1;durP2;ratioP2;P2;SDS_P1;SDS_P2;PMS_P1;PMS_P2;Temp;Humidity;BMP_temperature;BMP_pressure;BME280_temperature;BME280_humidity;BME280_pressure;Samples;Min_cycle;Max_cycle;Signal;HPM_P1;HPM_P2
2021/11/08 00:01:57;;;;;;;3.05;1.50;;;;;;;-145.06;100.00;60892.56;4870073;28;20202;-89
2021/11/08 00:04:36;;;;;;;3.00;1.15;;;;;;;-145.06;100.00;60892.56;4866484;28;20020;-89
2021/11/08 00:07:15;;;;;;;5.27;1.57;;;;;;;19.78;100.00;60892.56;4882955;28;20036;-88
2021/11/08 00:09:55;;;;;;;4.27;1.60;;;;;;;-145.06;100.00;60892.56;4868722;28;20299;-88
2021/11/08 00:12:34;;;;;;;6.35;1.60;;;;;;;-145.06;100.00;60892.56;4868572;28;20271;-88
2021/11/08 00:15:17;;;;;;;3.28;1.52;;;;;;;-145.06;100.00;60892.56;4868512;28;20041;-89
2021/11/08 00:18:02;;;;;;;3.95;1.48;;;;;;;-145.06;100.00;60892.56;4871144;28;20025;-90
2021/11/08 00:20:50;;;;;;;5.05;1.70;;;;;;;-145.06;100.00;60892.56;4870112;28;20033;-88
2021/11/08 00:23:29;;;;;;;4.47;1.50;;;;;;;-145.06;100.00;60892.56;4862390;28;20041;-88
2021/11/08 00:26:08;;;;;;;5.28;1.88;;;;;;;-145.06;100.00;60892.56;4869742;28;20033;-89
2021/11/08 00:28:47;;;;;;;2.95;1.40;;;;;;;-145.06;100.00;60892.56;4866445;28;20838;-90
2021/11/08 00:31:26;;;;;;;3.85;1.48;;;;;;;-145.06;100.00;60892.56;4862675;28;20029;-88
2021/11/08 00:34:05;;;;;;;4.67;1.43;;;;;;;-145.06;100.00;60892.56;4864593;28;20045;-89
2021/11/08 00:36:44;;;;;;;7.53;1.58;;;;;;;-145.06;100.00;60892.56;4877579;28;20059;-89
2021/11/08 00:39:23;;;;;;;4.40;1.90;;;;;;;-145.06;100.00;60892.56;4869549;28;20144;-89
2021/11/08 00:42:02;;;;;;;4.40;1.80;;;;;;;9.38;100.00;60892.56;4870122;28;20028;-90
2021/11/08 00:44:41;;;;;;;6.40;2.05;;;;;;;-145.06;100.00;60892.56;4865604;28;20029;-90
2021/11/08 00:47:21;;;;;;;9.15;2.05;;;;;;;-145.06;100.00;60892.56;4866780;28;20401;-89
2021/11/08 00:50:00;;;;;;;5.05;2.28;;;;;;;-145.06;100.00;60892.56;4868322;28;20033;-88
2021/11/08 00:52:39;;;;;;;6.97;1.63;;;;;;;-145.06;100.00;60892.56;4872612;28;20033;-89
2021/11/08 00:55:18;;;;;;;3.85;1.75;;;;;;;-145.06;100.00;60892.56;4865536;28;20037;-90
2021/11/08 00:57:59;;;;;;;2.80;1.40;;;;;;;-145.06;100.00;60892.56;4872171;28;21485;-89
2021/11/08 01:00:39;;;;;;;3.78;1.45;;;;;;;-145.06;100.00;60892.56;4866319;28;20478;-89
2021/11/08 01:03:21;;;;;;;3.03;1.10;;;;;;;-145.06;100.00;60892.56;4865567;28;20423;-90
2021/11/08 01:06:01;;;;;;;3.72;1.40;;;;;;;-145.06;100.00;60892.56;4866160;28;20037;-89
2021/11/08 01:08:41;;;;;;;7.53;1.60;;;;;;;-145.06;100.00;60892.56;4862201;28;20486;-89
2021/11/08 01:11:20;;;;;;;5.28;1.70;;;;;;;-145.06;100.00;60892.56;4871047;28;20036;-89
2021/11/08 01:13:59;;;;;;;4.27;1.53;;;;;;;-145.06;100.00;60892.56;4870085;28;20052;-90
2021/11/08 01:16:38;;;;;;;5.77;1.70;;;;;;;-145.06;100.00;60892.56;4869854;28;20025;-89
2021/11/08 01:19:18;;;;;;;4.28;1.38;;;;;;;-145.06;100.00;60892.56;4867476;28;20037;-89
2021/11/08 01:22:15;;;;;;;3.80;1.60;;;;;;;-145.06;100.00;60892.56;4864119;28;20044;-89
2021/11/08 01:24:55;;;;;;;4.20;1.55;;;;;;;-145.06;100.00;60892.56;4863539;28;20064;-89
2021/11/08 01:27:40;;;;;;;8.68;1.92;;;;;;;-145.06;100.00;60892.56;4868975;28;20192;-89
2021/11/08 01:30:23;;;;;;;4.55;1.55;;;;;;;-145.06;100.00;60892.56;4868320;28;20486;-89
2021/11/08 01:33:08;;;;;;;5.00;1.77;;;;;;;-145.06;100.00;60892.56;4866183;28;20028;-88
2021/11/08 01:35:58;;;;;;;6.15;1.95;;;;;;;-145.06;100.00;60892.56;4871597;28;20025;-89
2021/11/08 01:38:47;;;;;;;5.75;1.80;;;;;;;-145.06;100.00;60892.56;4866077;28;20470;-89
2021/11/08 01:41:27;;;;;;;3.88;1.50;;;;;;;-145.06;100.00;60892.56;4865998;28;20032;-89
2021/11/08 01:44:06;;;;;;;3.78;1.60;;;;;;;-145.06;100.00;60892.56;4868184;28;20108;-89
2021/11/08 01:46:46;;;;;;;6.65;1.80;;;;;;;-145.06;100.00;60892.56;4866902;28;20044;-89
2021/11/08 01:49:25;;;;;;;5.33;1.73;;;;;;;-145.06;100.00;60892.56;4861053;28;20482;-89
2021/11/08 01:52:06;;;;;;;3.95;1.60;;;;;;;-145.06;100.00;60892.56;4868115;28;20029;-89
2021/11/08 01:54:46;;;;;;;3.83;1.40;;;;;;;-145.06;100.00;60892.56;4867062;28;20502;-89
2021/11/08 01:57:25;;;;;;;2.77;1.37;;;;;;;-145.06;100.00;60892.56;4869988;28;20029;-89
2021/11/08 02:00:07;;;;;;;2.97;1.50;;;;;;;-145.06;100.00;60892.56;4868125;28;20040;-89
2021/11/08 02:02:47;;;;;;;3.45;1.27;;;;;;;-145.06;100.00;60892.56;4863258;28;20341;-89
2021/11/08 02:05:26;;;;;;;3.42;1.45;;;;;;;-145.06;100.00;60892.56;4868931;28;20472;-88
2021/11/08 02:08:05;;;;;;;4.13;1.73;;;;;;;-145.06;100.00;60892.56;4868330;28;20064;-89
2021/11/08 02:10:46;;;;;;;6.50;1.97;;;;;;;-145.06;100.00;60892.56;4866124;28;20032;-88
2021/11/08 02:13:25;;;;;;;7.88;1.67;;;;;;;-145.06;100.00;60892.56;4867103;28;20113;-90
2021/11/08 02:16:07;;;;;;;4.90;1.40;;;;;;;-145.06;100.00;60892.56;4863459;28;20032;-88
2021/11/08 02:18:46;;;;;;;4.72;1.60;;;;;;;-145.06;100.00;60892.56;4869963;28;20470;-88
2021/11/08 02:21:25;;;;;;;8.13;2.13;;;;;;;-145.06;100.00;60892.56;4865712;28;20033;-89
2021/11/08 02:24:08;;;;;;;4.70;1.50;;;;;;;-145.06;100.00;60892.56;4868043;28;20025;-89
2021/11/08 02:26:48;;;;;;;4.47;1.77;;;;;;;-145.06;100.00;60892.56;4876667;28;20272;-89
2021/11/08 02:29:27;;;;;;;4.53;2.03;;;;;;;-145.06;100.00;60892.56;4869169;28;20029;-89
2021/11/08 02:32:06;;;;;;;5.57;1.93;;;;;;;-145.06;100.00;60892.56;4870144;28;20032;-89
2021/11/08 02:34:45;;;;;;;6.00;1.98;;;;;;;-145.06;100.00;60892.56;4871435;28;20033;-89
2021/11/08 02:37:24;;;;;;;3.20;1.60;;;;;;;-145.06;100.00;60892.56;4868337;28;20108;-88
2021/11/08 02:40:04;;;;;;;6.10;2.00;;;;;;;-145.06;100.00;60892.56;4865198;28;20076;-88
2021/11/08 02:42:43;;;;;;;;;;;;;;;-145.06;100.00;60892.56;4868028;28;20478;-88
2021/11/08 02:45:24;;;;;;;5.35;2.03;;;;;;;-145.06;100.00;60892.56;4866501;28;19920;-89
2021/11/08 02:48:04;;;;;;;5.57;1.77;;;;;;;-145.06;100.00;60892.56;4866450;28;20029;-88
2021/11/08 02:50:43;;;;;;;5.70;2.00;;;;;;;-145.06;100.00;60892.56;4865165;28;20388;-88
2021/11/08 02:53:24;;;;;;;7.50;2.42;;;;;;;-145.06;100.00;60892.56;4868275;28;20383;-88
2021/11/08 02:56:06;;;;;;;4.30;1.67;;;;;;;-145.06;100.00;60892.56;4865701;28;20041;-89
2021/11/08 02:58:46;;;;;;;6.70;2.28;;;;;;;-145.06;100.00;60892.56;4871527;28;20041;-89
2021/11/08 03:01:26;;;;;;;4.53;1.95;;;;;;;-145.06;100.00;60892.56;4864972;28;20029;-88
2021/11/08 03:04:13;;;;;;;;;;;;;;;-145.06;100.00;60892.56;4871333;28;20119;-89
2021/11/08 03:06:52;;;;;;;5.93;1.70;;;;;;;-145.06;100.00;60892.56;4880324;28;19917;-89
2021/11/08 03:09:40;;;;;;;4.40;1.73;;;;;;;-145.06;100.00;60892.56;4887966;28;20321;-88
2021/11/08 03:12:24;;;;;;;4.65;2.03;;;;;;;-145.06;100.00;60892.56;4875540;28;20276;-89
2021/11/08 03:15:16;;;;;;;3.45;1.58;;;;;;;-145.06;100.00;60892.56;4875481;28;20033;-89
2021/11/08 03:18:14;;;;;;;5.40;1.77;;;;;;;-145.06;100.00;60892.56;4870614;28;20036;-89
2021/11/08 03:20:54;;;;;;;3.88;1.70;;;;;;;-145.06;100.00;60892.56;4873014;28;20497;-90
2021/11/08 03:23:33;;;;;;;2.17;1.35;;;;;;;-145.06;100.00;60892.56;4867265;28;20040;-88
2021/11/08 03:29:11;;;;;;;3.65;1.63;;;;;;;-145.06;100.00;60892.56;4868990;28;20518;-90
2021/11/08 03:31:51;;;;;;;5.05;1.65;;;;;;;-145.06;100.00;60892.56;4869272;28;20432;-89
2021/11/08 03:34:30;;;;;;;6.45;1.63;;;;;;;-145.06;100.00;60892.56;4870642;28;20104;-88
2021/11/08 03:37:09;;;;;;;5.83;1.70;;;;;;;-145.06;100.00;60892.56;4869775;28;20037;-89
2021/11/08 03:39:49;;;;;;;4.68;1.83;;;;;;;-145.06;100.00;60892.56;4870345;28;20055;-89
2021/11/08 03:42:29;;;;;;;5.00;1.83;;;;;;;-145.06;100.00;60892.56;4865764;28;20036;-89
2021/11/08 03:45:08;;;;;;;5.78;1.60;;;;;;;-145.06;100.00;60892.56;4874237;28;20033;-89
2021/11/08 03:47:49;;;;;;;6.43;1.70;;;;;;;-145.06;100.00;60892.56;4868992;28;20040;-89
2021/11/08 03:50:28;;;;;;;3.85;1.65;;;;;;;-145.06;100.00;60892.56;4881806;28;20037;-89
2021/11/08 03:53:08;;;;;;;;;;;;;;;-145.06;100.00;60892.56;4864549;28;20030;-88
2021/11/08 03:55:48;;;;;;;4.38;1.77;;;;;;;-145.06;100.00;60892.56;4868799;28;19913;-89
2021/11/08 03:58:27;;;;;;;3.70;1.67;;;;;;;9.04;100.00;60892.56;4864740;28;20025;-88
2021/11/08 04:01:06;;;;;;;4.93;1.80;;;;;;;-145.06;100.00;60892.56;4870951;28;20111;-89
2021/11/08 04:03:45;;;;;;;4.03;1.73;;;;;;;-145.06;100.00;60892.56;4867011;28;20264;-89
2021/11/08 04:06:24;;;;;;;4.43;1.50;;;;;;;-145.06;100.00;60892.56;4876601;28;20271;-89
2021/11/08 04:09:06;;;;;;;4.72;2.25;;;;;;;9.10;100.00;60892.56;4871269;28;20033;-90
2021/11/08 04:11:46;;;;;;;3.50;1.40;;;;;;;-145.06;100.00;60892.56;4879193;28;20041;-88
2021/11/08 04:14:25;;;;;;;5.78;1.70;;;;;;;-145.06;100.00;60892.56;4869031;28;20037;-89
2021/11/08 04:17:05;;;;;;;4.50;1.75;;;;;;;-145.06;100.00;60892.56;4867958;28;20033;-89
2021/11/08 04:19:44;;;;;;;3.55;1.50;;;;;;;-145.06;100.00;60892.56;4870375;28;20025;-89
2021/11/08 04:22:23;;;;;;;6.87;2.43;;;;;;;-145.06;100.00;60892.56;4866215;28;21018;-89
2021/11/08 04:25:04;;;;;;;8.63;2.00;;;;;;;9.10;100.00;60892.56;4867316;28;20069;-88
2021/11/08 04:27:43;;;;;;;8.25;2.80;;;;;;;9.10;100.00;60892.56;4876519;28;20040;-88
2021/11/08 04:30:24;;;;;;;6.55;2.33;;;;;;;9.14;100.00;60892.56;4868065;28;20376;-89
2021/11/08 04:41:58;;;;;;;3.80;1.88;;;;;;;9.11;100.00;60892.56;4882415;28;20032;-89
2021/11/08 05:23:06;;;;;;;6.63;2.28;;;;;;;-145.06;100.00;60892.56;4865699;28;20033;-90
2021/11/08 05:31:51;;;;;;;6.20;2.22;;;;;;;-145.06;100.00;60892.56;4867283;28;20435;-89
2021/11/08 05:34:30;;;;;;;4.18;1.80;;;;;;;-145.06;100.00;60892.56;4874076;28;20028;-90
2021/11/08 05:37:09;;;;;;;5.93;2.40;;;;;;;-145.06;100.00;60892.56;4861794;28;20060;-89
2021/11/08 05:39:51;;;;;;;7.33;2.43;;;;;;;-145.06;100.00;60892.56;4864249;28;20025;-89
2021/11/08 05:42:30;;;;;;;5.63;1.85;;;;;;;-145.06;100.00;60892.56;4862496;28;20271;-89
2021/11/08 05:45:14;;;;;;;5.05;2.08;;;;;;;9.14;100.00;60892.56;4865089;28;20487;-89
2021/11/08 05:47:53;;;;;;;4.07;1.80;;;;;;;9.38;100.00;60892.56;4866576;28;20037;-90
2021/11/08 05:50:34;;;;;;;4.32;2.00;;;;;;;9.07;100.00;60892.56;4865186;28;20041;-89
2021/11/08 05:53:14;;;;;;;5.28;2.00;;;;;;;9.22;100.00;60892.56;4862967;28;20033;-89
2021/11/08 05:59:30;;;;;;;4.18;1.70;;;;;;;-145.06;100.00;60892.56;4866164;28;20045;-89
2021/11/08 06:49:27;;;;;;;3.95;1.52;;;;;;;-145.06;100.00;60892.56;4870747;28;20711;-89
2021/11/08 06:52:06;;;;;;;6.25;2.35;;;;;;;-145.06;100.00;60892.56;4864298;28;20037;-89
2021/11/08 06:54:47;;;;;;;5.18;2.08;;;;;;;-145.06;100.00;60892.56;4858621;28;20116;-88
2021/11/08 06:57:50;;;;;;;5.07;2.20;;;;;;;-145.06;100.00;60892.56;4867633;28;20041;-89
2021/11/08 07:00:26;;;;;;;3.70;1.70;;;;;;;9.04;100.00;60892.56;4868483;28;20060;-89
2021/11/08 07:03:05;;;;;;;4.45;2.00;;;;;;;9.22;100.00;60892.56;4867224;28;20465;-89
2021/11/08 07:05:44;;;;;;;5.03;1.80;;;;;;;9.07;100.00;60892.56;4868655;28;20111;-89
2021/11/08 07:08:24;;;;;;;4.55;1.67;;;;;;;-145.06;100.00;60892.56;4866561;28;20041;-90
2021/11/08 07:11:03;;;;;;;3.67;1.48;;;;;;;-145.06;100.00;60892.56;4865021;28;20041;-89
2021/11/08 07:13:43;;;;;;;4.22;1.60;;;;;;;9.08;100.00;60892.56;4864897;28;20033;-89
2021/11/08 07:16:22;;;;;;;2.55;1.52;;;;;;;-145.06;100.00;60892.56;4866746;28;20029;-89
2021/11/08 07:19:02;;;;;;;5.40;1.90;;;;;;;-145.06;100.00;60892.56;4870008;28;20036;-89
2021/11/08 07:21:41;;;;;;;5.00;1.50;;;;;;;-145.06;100.00;60892.56;4868099;28;20037;-89
2021/11/08 07:24:20;;;;;;;3.47;1.63;;;;;;;-145.06;100.00;60892.56;4868806;28;20064;-89
2021/11/08 07:26:59;;;;;;;3.60;1.52;;;;;;;-145.06;100.00;60892.56;4863951;28;20565;-89
2021/11/08 07:29:38;;;;;;;3.95;1.90;;;;;;;-145.06;100.00;60892.56;4866500;28;20707;-89
2021/11/08 07:32:18;;;;;;;4.13;1.40;;;;;;;-145.06;100.00;60892.56;4867904;28;20037;-89
2021/11/08 07:34:57;;;;;;;2.92;1.40;;;;;;;9.34;100.00;60892.56;4864277;28;20120;-89
2021/11/08 07:37:36;;;;;;;4.20;1.52;;;;;;;-145.06;100.00;60892.56;4874814;28;20037;-89
2021/11/08 07:40:16;;;;;;;3.93;1.80;;;;;;;-145.06;100.00;60892.56;4868375;28;20040;-89
2021/11/08 07:42:55;;;;;;;3.80;1.60;;;;;;;-145.06;100.00;60892.56;4867364;28;20765;-89
2021/11/08 07:45:34;;;;;;;5.72;1.55;;;;;;;-145.06;100.00;60892.56;4868863;28;20037;-89
2021/11/08 07:48:13;;;;;;;2.97;1.42;;;;;;;-145.06;100.00;60892.56;4865060;28;20033;-90
2021/11/08 07:50:52;;;;;;;3.00;1.58;;;;;;;9.44;100.00;60892.56;4866467;28;20494;-89
2021/11/08 07:53:31;;;;;;;4.78;1.55;;;;;;;-145.06;100.00;60892.56;4863143;28;20033;-89
2021/11/08 07:56:10;;;;;;;4.68;1.73;;;;;;;-145.06;100.00;60892.56;4865408;28;20032;-89
2021/11/08 07:58:50;;;;;;;3.83;1.77;;;;;;;-145.06;100.00;60892.56;4866225;28;20040;-89
2021/11/08 08:01:29;;;;;;;3.60;1.80;;;;;;;-145.06;100.00;60892.56;4867842;28;20033;-89
2021/11/08 08:04:08;;;;;;;2.70;1.60;;;;;;;-145.06;100.00;60892.56;4864563;28;20136;-89
2021/11/08 08:06:50;;;;;;;4.90;1.92;;;;;;;9.43;100.00;60892.56;4868225;28;20033;-90
2021/11/08 08:09:30;;;;;;;4.70;2.22;;;;;;;9.43;100.00;60892.56;4866477;28;20037;-89
2021/11/08 08:12:09;;;;;;;5.90;2.42;;;;;;;-145.06;100.00;60892.56;4868526;28;20029;-89
2021/11/08 08:14:48;;;;;;;4.82;2.00;;;;;;;-145.06;100.00;60892.56;4866154;28;20037;-88
2021/11/08 08:17:27;;;;;;;4.00;1.63;;;;;;;-145.06;100.00;60892.56;4867121;28;20033;-89
2021/11/08 08:20:09;;;;;;;3.85;1.73;;;;;;;-145.06;100.00;60892.56;4861773;28;20036;-89
2021/11/08 08:22:48;;;;;;;4.40;1.55;;;;;;;-145.06;100.00;60892.56;4865632;28;20052;-89
2021/11/08 08:25:27;;;;;;;4.07;1.58;;;;;;;9.54;100.00;60892.56;4863990;28;20388;-89
2021/11/08 08:28:06;;;;;;;5.20;1.70;;;;;;;-145.06;100.00;60892.56;4862463;28;20168;-89
2021/11/08 08:30:45;;;;;;;4.68;1.60;;;;;;;-145.06;100.00;60892.56;4867392;28;20061;-89
2021/11/08 08:33:26;;;;;;;5.47;1.55;;;;;;;9.65;100.00;60892.56;4863910;28;20025;-88
2021/11/08 08:36:06;;;;;;;3.60;1.40;;;;;;;-145.06;100.00;60892.56;4864101;28;20037;-89
2021/11/08 08:38:45;;;;;;;2.83;1.30;;;;;;;-145.06;100.00;60892.56;4866996;28;20032;-89
2021/11/08 08:41:24;;;;;;;3.53;1.27;;;;;;;-145.06;100.00;60892.56;4861955;28;20036;-90
2021/11/08 08:44:03;;;;;;;3.80;1.55;;;;;;;-145.06;100.00;60892.56;4864558;28;20364;-89
2021/11/08 08:46:44;;;;;;;4.22;1.33;;;;;;;-145.06;100.00;60892.56;4858889;28;20045;-89
2021/11/08 08:49:24;;;;;;;3.35;1.30;;;;;;;-145.06;100.00;60892.56;4865662;28;20419;-88
2021/11/08 08:52:03;;;;;;;;;;;;;;;-145.06;100.00;60892.56;4863049;28;20036;-89
2021/11/08 08:54:42;;;;;;;3.83;1.40;;;;;;;-145.06;100.00;60892.56;4867545;28;20239;-90
2021/11/08 08:57:21;;;;;;;3.07;1.30;;;;;;;-145.06;100.00;60892.56;4870347;28;20041;-88
2021/11/08 09:00:02;;;;;;;4.95;1.70;;;;;;;-145.06;100.00;60892.56;4865422;28;20264;-89
2021/11/08 09:02:41;;;;;;;2.75;1.30;;;;;;;-145.06;100.00;60892.56;4864342;28;20033;-89
2021/11/08 09:05:22;;;;;;;3.92;1.63;;;;;;;-145.06;100.00;60892.56;4859931;28;20028;-90
2021/11/08 09:08:02;;;;;;;5.25;1.50;;;;;;;-145.06;100.00;60892.56;4862668;28;20033;-89
2021/11/08 09:10:42;;;;;;;4.57;1.80;;;;;;;10.68;100.00;60892.56;4865280;28;20502;-90
2021/11/08 09:13:22;;;;;;;3.35;1.33;;;;;;;-145.06;100.00;60892.56;4862632;28;20466;-89
2021/11/08 09:16:01;;;;;;;4.20;1.75;;;;;;;-145.06;100.00;60892.56;4860095;28;20494;-90
2021/11/08 09:18:53;;;;;;;5.38;1.83;;;;;;;-145.06;100.00;60892.56;4861114;28;20033;-89
2021/11/08 09:21:33;;;;;;;4.53;1.50;;;;;;;10.27;100.00;60892.56;4863048;28;20061;-89
2021/11/08 09:24:12;;;;;;;4.70;1.73;;;;;;;-145.06;100.00;60892.56;4862484;28;20025;-89
2021/11/08 09:26:51;;;;;;;6.05;2.47;;;;;;;-145.06;100.00;60892.56;4866163;28;20037;-90
2021/11/08 09:29:31;;;;;;;6.43;2.05;;;;;;;-145.06;100.00;60892.56;4864292;28;20385;-89
2021/11/08 09:32:11;;;;;;;4.22;1.88;;;;;;;-145.06;100.00;60892.56;4865113;28;20041;-88
2021/11/08 09:34:50;;;;;;;;;;;;;;;-145.06;100.00;60892.56;4864413;28;20069;-89
2021/11/08 09:37:33;;;;;;;7.53;2.00;;;;;;;10.37;100.00;60892.56;4873135;28;19951;-88
2021/11/08 09:40:21;;;;;;;6.07;2.15;;;;;;;-145.06;100.00;60892.56;4882783;28;20040;-89
2021/11/08 09:43:01;;;;;;;4.05;1.90;;;;;;;10.39;100.00;60892.56;4862025;28;20479;-89
2021/11/08 09:45:42;;;;;;;4.43;1.73;;;;;;;-145.06;100.00;60892.56;4867175;28;20451;-89
2021/11/08 09:48:22;;;;;;;5.45;1.98;;;;;;;-145.06;100.00;60892.56;4858960;28;20436;-89
2021/11/08 09:51:01;;;;;;;3.47;1.70;;;;;;;21.08;100.00;60892.56;4856499;28;20029;-89
2021/11/08 09:53:42;;;;;;;10.75;2.38;;;;;;;-145.06;100.00;60892.56;4864468;28;20029;-89
2021/11/08 09:56:20;;;;;;;6.40;2.00;;;;;;;-145.06;100.00;60892.56;4861568;28;20065;-88
2021/11/08 09:59:00;;;;;;;7.33;2.40;;;;;;;-145.06;100.00;60892.56;4868128;28;20025;-90
2021/11/08 10:01:43;;;;;;;7.78;2.55;;;;;;;-145.06;100.00;60892.56;4867121;28;20025;-89
2021/11/08 10:04:23;;;;;;;7.65;2.83;;;;;;;-145.06;100.00;60892.56;4864212;28;20033;-89
2021/11/08 10:07:03;;;;;;;6.72;2.33;;;;;;;-145.06;100.00;60892.56;4866128;28;20036;-89
2021/11/08 10:09:43;;;;;;;7.88;2.72;;;;;;;-145.06;100.00;60892.56;4867174;28;20060;-89
2021/11/08 10:12:22;;;;;;;7.30;2.65;;;;;;;-145.06;100.00;60892.56;4870604;28;20036;-89
2021/11/08 10:15:01;;;;;;;7.87;2.57;;;;;;;11.64;100.00;60892.56;4867031;28;20107;-88
2021/11/08 10:17:40;;;;;;;7.50;2.75;;;;;;;-145.06;100.00;60892.56;4866177;28;20260;-88
2021/11/08 10:20:43;;;;;;;7.40;3.00;;;;;;;-145.06;100.00;60892.56;4867855;28;20028;-88
2021/11/08 10:23:24;;;;;;;6.68;2.90;;;;;;;12.06;100.00;60892.56;4864411;28;20486;-89
2021/11/08 10:26:11;;;;;;;7.38;2.80;;;;;;;12.16;100.00;60892.56;4867188;28;20037;-89
2021/11/08 10:28:54;;;;;;;7.05;2.53;;;;;;;-145.06;100.00;60892.56;4864904;28;20044;-89
2021/11/08 10:31:39;;;;;;;6.55;2.47;;;;;;;-145.06;100.00;60892.56;4867876;28;20074;-89
2021/11/08 10:34:19;;;;;;;7.03;2.22;;;;;;;-145.06;100.00;60892.56;4863218;28;20061;-88
2021/11/08 10:37:05;;;;;;;7.45;2.95;;;;;;;-145.06;100.00;60892.56;4864926;28;20040;-88
2021/11/08 10:39:46;;;;;;;9.00;3.38;;;;;;;15.88;100.00;60892.56;4869759;28;20161;-89
2021/11/08 10:42:28;;;;;;;10.27;3.00;;;;;;;-145.06;100.00;60892.56;4867354;28;20052;-89
2021/11/08 10:45:18;;;;;;;9.55;3.10;;;;;;;-145.06;100.00;60892.56;4864711;28;20028;-89
2021/11/08 10:48:02;;;;;;;8.57;2.72;;;;;;;13.12;100.00;60892.56;4863196;28;20204;-88
2021/11/08 10:50:42;;;;;;;5.80;2.78;;;;;;;-145.06;100.00;60892.56;4877573;28;20112;-89
2021/11/08 10:53:22;;;;;;;7.88;2.85;;;;;;;13.24;100.00;60892.56;4866908;28;20037;-89
2021/11/08 10:56:07;;;;;;;8.18;3.10;;;;;;;-145.06;100.00;60892.56;4867743;28;20033;-88
2021/11/08 10:58:47;;;;;;;5.63;2.50;;;;;;;-145.06;100.00;60892.56;4863567;28;20439;-89
2021/11/08 11:01:36;;;;;;;4.55;2.20;;;;;;;-145.06;100.00;60892.56;4869346;28;20033;-89
2021/11/08 11:04:18;;;;;;;5.60;2.10;;;;;;;13.60;100.00;60892.56;4864010;28;20037;-89
2021/11/08 11:06:57;;;;;;;4.63;1.85;;;;;;;-145.06;100.00;60892.56;4865174;28;20136;-89
2021/11/08 11:09:37;;;;;;;4.63;1.85;;;;;;;-145.06;100.00;60892.56;4862692;28;20033;-89
2021/11/08 11:12:23;;;;;;;5.60;2.17;;;;;;;-145.06;100.00;60892.56;4873911;28;20037;-88
2021/11/08 11:15:09;;;;;;;6.38;2.40;;;;;;;-145.06;100.00;60892.56;4864844;28;20400;-89
2021/11/08 11:17:58;;;;;;;5.15;1.90;;;;;;;-145.06;100.00;60892.56;4867014;28;20024;-88
2021/11/08 11:20:40;;;;;;;5.50;1.63;;;;;;;-145.06;100.00;60892.56;4869394;28;20032;-88
2021/11/08 11:23:23;;;;;;;3.15;1.80;;;;;;;-145.06;100.00;60892.56;4867796;28;20427;-88
2021/11/08 11:26:08;;;;;;;6.47;1.75;;;;;;;14.35;100.00;60892.56;4867554;28;20033;-89
2021/11/08 11:28:48;;;;;;;3.95;1.75;;;;;;;-145.06;100.00;60892.56;4860738;28;20028;-89
2021/11/08 11:31:33;;;;;;;4.88;1.40;;;;;;;14.58;100.00;60892.56;4864138;28;20515;-89
2021/11/08 11:34:15;;;;;;;3.72;1.30;;;;;;;-145.06;100.00;60892.56;4874286;28;20033;-89
2021/11/08 11:36:54;;;;;;;5.60;1.48;;;;;;;-145.06;100.00;60892.56;4869677;28;20037;-89
2021/11/08 11:39:33;;;;;;;6.80;1.70;;;;;;;-145.06;100.00;60892.56;4862528;28;20037;-88
2021/11/08 11:42:13;;;;;;;3.95;1.60;;;;;;;-145.06;100.00;60892.56;4865425;28;20271;-88
2021/11/08 11:45:02;;;;;;;4.63;1.90;;;;;;;-145.06;100.00;60892.56;4870703;28;20068;-88
2021/11/08 11:47:41;;;;;;;7.32;1.73;;;;;;;14.43;100.00;60892.56;4860129;28;20033;-88
2021/11/08 11:50:22;;;;;;;4.37;1.90;;;;;;;-145.06;100.00;60892.56;4865993;28;20380;-89
2021/11/08 11:53:04;;;;;;;5.18;1.65;;;;;;;-145.06;100.00;60892.56;4864144;28;20251;-88
2021/11/08 11:55:44;;;;;;;4.95;1.30;;;;;;;-145.06;100.00;60892.56;4864933;28;20506;-89
2021/11/08 11:58:23;;;;;;;5.03;1.70;;;;;;;14.13;100.00;60892.56;4862573;28;20143;-89
2021/11/08 12:01:05;;;;;;;6.10;2.03;;;;;;;-145.06;100.00;60892.56;4866245;28;20037;-88
2021/11/08 12:03:45;;;;;;;3.90;1.58;;;;;;;-145.06;100.00;60892.56;4861051;28;20454;-89
2021/11/08 12:06:32;;;;;;;6.18;2.05;;;;;;;-145.06;100.00;60892.56;4867731;28;20385;-89
2021/11/08 12:09:20;;;;;;;4.57;1.50;;;;;;;-145.06;100.00;60892.56;4865321;28;20037;-89
2021/11/08 12:12:00;;;;;;;3.22;1.58;;;;;;;-145.06;100.00;60892.56;4866269;28;20359;-88
2021/11/08 12:14:39;;;;;;;3.25;1.42;;;;;;;-145.06;100.00;60892.56;4861241;28;20052;-89
2021/11/08 12:17:19;;;;;;;4.03;1.37;;;;;;;-145.06;100.00;60892.56;4864410;28;20041;-89
2021/11/08 12:20:05;;;;;;;5.38;1.50;;;;;;;-145.06;100.00;60892.56;4868182;28;20036;-88
2021/11/08 12:22:45;;;;;;;3.83;1.58;;;;;;;-145.06;100.00;60892.56;4862588;28;20367;-89
2021/11/08 12:25:27;;;;;;;7.35;2.20;;;;;;;13.93;100.00;60892.56;4866557;28;20392;-89
2021/11/08 12:28:07;;;;;;;5.22;1.73;;;;;;;-145.06;100.00;60892.56;4865035;28;20455;-88
2021/11/08 12:30:51;;;;;;;3.38;1.65;;;;;;;13.27;100.00;60892.56;4863339;28;20167;-89
2021/11/08 12:33:36;;;;;;;5.30;1.90;;;;;;;13.24;100.00;60892.56;4863887;28;20029;-88
2021/11/08 12:36:18;;;;;;;9.23;1.80;;;;;;;-145.06;100.00;60892.56;4862585;28;20037;-89
2021/11/08 12:39:14;;;;;;;5.30;1.70;;;;;;;13.16;100.00;60892.56;4864466;28;20033;-89
2021/11/08 12:42:00;;;;;;;7.22;2.00;;;;;;;13.20;100.00;60892.56;4857881;28;20044;-89
2021/11/08 12:44:45;;;;;;;4.70;1.50;;;;;;;-145.06;100.00;60892.56;4859261;28;20060;-88
2021/11/08 12:47:30;;;;;;;5.07;1.48;;;;;;;13.13;100.00;60892.56;4863687;28;20383;-89
2021/11/08 12:50:10;;;;;;;7.05;1.55;;;;;;;13.20;100.00;60892.56;4867374;28;20033;-89
2021/11/08 12:52:49;;;;;;;4.45;1.63;;;;;;;13.16;100.00;60892.56;4864771;28;20048;-89
2021/11/08 12:55:40;;;;;;;4.53;1.70;;;;;;;-145.06;100.00;60892.56;4865238;28;20112;-88
2021/11/08 12:58:29;;;;;;;3.65;1.58;;;;;;;13.18;100.00;60892.56;4863364;28;20037;-89
2021/11/08 13:01:14;;;;;;;2.83;1.20;;;;;;;13.19;100.00;60892.56;4867349;28;20037;-89
2021/11/08 13:04:07;;;;;;;4.80;1.30;;;;;;;-145.06;100.00;60892.56;4865285;28;20024;-89
2021/11/08 13:06:47;;;;;;;3.53;1.20;;;;;;;-145.06;100.00;60892.56;4862882;28;20093;-89
2021/11/08 13:09:39;;;;;;;5.78;1.70;;;;;;;13.21;100.00;60892.56;4874627;28;20478;-88
2021/11/08 13:12:20;;;;;;;3.42;1.00;;;;;;;-145.06;100.00;60892.56;4871450;28;20033;-89
2021/11/08 13:15:10;;;;;;;2.92;1.10;;;;;;;13.14;100.00;60892.56;4862291;28;20041;-88
2021/11/08 13:17:53;;;;;;;4.60;1.23;;;;;;;-145.06;100.00;60892.56;4859114;28;20041;-89
2021/11/08 13:20:38;;;;;;;2.90;1.20;;;;;;;-145.06;100.00;60892.56;4864453;28;20029;-88
2021/11/08 13:23:23;;;;;;;4.55;1.40;;;;;;;-145.06;100.00;60892.56;4860601;28;20033;-88
2021/11/08 13:26:03;;;;;;;6.05;1.45;;;;;;;-145.06;100.00;60892.56;4861721;28;20469;-89
2021/11/08 13:28:42;;;;;;;4.72;1.40;;;;;;;13.07;100.00;60892.56;4861862;28;20036;-89
2021/11/08 13:31:21;;;;;;;4.68;1.85;;;;;;;13.08;100.00;60892.56;4859163;28;20813;-89
2021/11/08 13:34:00;;;;;;;6.78;1.67;;;;;;;13.05;100.00;60892.56;4862459;28;20037;-89
2021/11/08 13:36:42;;;;;;;3.63;1.27;;;;;;;13.05;100.00;60892.56;4865733;28;20029;-88
2021/11/08 13:39:22;;;;;;;3.40;1.30;;;;;;;13.28;100.00;60892.56;4867132;28;20064;-88
2021/11/08 13:42:01;;;;;;;3.80;1.55;;;;;;;-145.06;100.00;60892.56;4863655;28;20403;-89
2021/11/08 13:44:41;;;;;;;3.35;1.10;;;;;;;13.08;100.00;60892.56;4865146;28;20550;-89
2021/11/08 13:47:19;;;;;;;5.30;1.57;;;;;;;13.12;100.00;60892.56;4865144;28;20060;-88
2021/11/08 13:50:08;;;;;;;3.17;1.30;;;;;;;13.03;100.00;60892.56;4863764;28;20033;-88
2021/11/08 13:52:54;;;;;;;3.17;1.15;;;;;;;-145.06;100.00;60892.56;4858968;28;20033;-88
2021/11/08 13:55:33;;;;;;;2.17;1.08;;;;;;;-145.06;100.00;60892.56;4862729;28;20033;-89
2021/11/08 13:58:16;;;;;;;3.67;0.93;;;;;;;-145.06;100.00;60892.56;4867012;28;20427;-88
2021/11/08 14:01:09;;;;;;;4.10;1.23;;;;;;;-145.06;100.00;60892.56;4863510;28;20041;-88
2021/11/08 14:03:50;;;;;;;4.85;1.35;;;;;;;-145.06;100.00;60892.56;4863583;28;20431;-89
2021/11/08 14:06:35;;;;;;;2.47;0.88;;;;;;;-145.06;100.00;60892.56;4864221;28;20452;-88